Lapel, IN (46051)

5:30 PM EDT on July 25, 2016 (GMT -0400)
Neighborhood | | Change Station

Elev 860 ft 40.07 °N, 85.85 °W | Updated 6 minutes ago

Scattered Clouds
Scattered Clouds
88.2 °F
Feels Like 97 °F
N
5.8
Wind Variable Wind from SW

Today
High -- | Low -- °F
--% Chance of Precip.
Yesterday
High -- | Low -- °F
Precip. -- in
Pressure 29.99 in
Visibility 10.0 miles
Clouds Scattered Clouds 3800 ft
Scattered Clouds 4700 ft
Heat Index 97 °F
Dew Point 74 °F
Humidity 62%
Rainfall 0.00 in
Snow Depth Not available.
6:35 AM 9:03 PM
Waning Gibbous, 62% visible
METAR KMQJ 252118Z AUTO 30006KT 10SM SCT038 SCT047 31/22 A2999 RMK AO1
Pressure 29.99 in
Visibility 10.0 miles
Clouds Scattered Clouds 3800 ft
Scattered Clouds 4700 ft
Heat Index 97 °F
Dew Point 74 °F
Humidity 62%
Rainfall 0.00 in
Snow Depth Not available.
6:35 AM 9:03 PM
Waning Gibbous, 62% visible
METAR KMQJ 252118Z AUTO 30006KT 10SM SCT038 SCT047 31/22 A2999 RMK AO1
Record highs are possible for parts of the Northeast Monday and Tuesday, as parts of the central U.S. take a little breather from the worst of summer's dog day heat.

Expansive high pressure in the upper atmosphere will focus on parts of the East and West this week, sending heat indices well into the triple digits from the Mid-Atlantic states into the South.

10-Day Weather Forecast

Almanac

Astronomy

Jul. 25, 2016 Rise Set
Actual Time
Civil Twilight
Nautical Twilight
Astronomical Twilight
Moon
Length of Visible Light
Length of Day
Tomorrow will be .
, % of the Moon is Illuminated

Today's Extremes

State Highs State Lows

Community

WunderPhotos

Upload Photos

1,927,424 photos uploaded!

WunderBlog® & News

Nearby

Air Quality

  Air Quality AQ Index Pollutant
Not available.

Snow Depth

Station Depth Elevation

Earthquake Activity

City Distance Mag. Time & Date
Minimum magnitude displayed is 2.5.

Coastal Water Temperatures

Place Temperature

Stations

Nearby Weather Stations

Station Location Temp. Windchill Dew Point Humidity Wind Precip. Elev Updated Type
                   

Watches & Warnings

There are currently no watches in effect.